createdAt,value
2023-04-26T00:00:14.251Z,57.33
2023-04-26T00:03:04.206Z,57.09
2023-04-26T00:05:35.167Z,56.79
2023-04-26T00:08:04.240Z,57.01
2023-04-26T00:10:33.269Z,57.02
2023-04-26T00:13:03.922Z,57.34
2023-04-26T00:15:33.325Z,57.38
2023-04-26T00:18:02.211Z,57.54
2023-04-26T00:20:31.455Z,57.11
2023-04-26T00:23:00.296Z,57.98
2023-04-26T00:25:29.681Z,57.94
2023-04-26T00:27:58.447Z,58.10
2023-04-26T00:30:28.956Z,58.53
2023-04-26T00:32:58.023Z,58.77
2023-04-26T00:35:27.073Z,58.51
2023-04-26T00:37:56.551Z,58.56
2023-04-26T00:40:25.686Z,58.33
2023-04-26T00:42:58.784Z,58.77
2023-04-26T00:45:29.794Z,58.91
2023-04-26T00:47:59.418Z,58.66
2023-04-26T00:50:28.996Z,58.37
2023-04-26T00:52:58.514Z,58.64
2023-04-26T00:55:28.188Z,58.58
2023-04-26T00:57:57.854Z,58.87
2023-04-26T01:00:27.795Z,58.32
2023-04-26T01:02:58.140Z,59.06
2023-04-26T01:05:27.600Z,59.33
2023-04-26T01:07:56.546Z,59.68
2023-04-26T01:10:26.539Z,58.74
2023-04-26T01:12:55.544Z,59.07
2023-04-26T01:15:24.806Z,58.92
2023-04-26T01:17:53.771Z,59.53
2023-04-26T01:20:24.459Z,59.41
2023-04-26T01:22:54.852Z,59.66
2023-04-26T01:25:24.100Z,59.21
2023-04-26T01:27:53.004Z,59.57
2023-04-26T01:30:22.097Z,59.83
2023-04-26T01:32:51.060Z,59.82
2023-04-26T01:35:20.955Z,59.70
2023-04-26T01:37:50.141Z,59.27
2023-04-26T01:40:20.548Z,59.93
2023-04-26T01:42:49.531Z,59.42
2023-04-26T01:45:18.637Z,59.45
2023-04-26T01:48:06.903Z,59.56
2023-04-26T01:50:36.123Z,59.36
2023-04-26T01:53:04.988Z,59.66
2023-04-26T01:55:36.220Z,58.91
2023-04-26T01:58:05.249Z,59.53
2023-04-26T02:00:35.403Z,59.91
2023-04-26T02:03:04.495Z,58.79
2023-04-26T02:05:33.599Z,59.39
2023-04-26T02:08:03.016Z,58.61
2023-04-26T02:10:32.174Z,59.67
2023-04-26T02:13:02.511Z,59.04
2023-04-26T02:15:31.931Z,58.44
2023-04-26T02:18:00.755Z,59.22
2023-04-26T02:20:30.109Z,59.13
2023-04-26T02:22:58.849Z,59.38
2023-04-26T02:25:28.025Z,59.23
2023-04-26T02:27:56.846Z,59.49
2023-04-26T02:31:20.047Z,59.76
2023-04-26T02:33:51.458Z,59.71
2023-04-26T02:36:21.348Z,59.84
2023-04-26T02:38:50.426Z,59.74
2023-04-26T02:41:20.090Z,59.78
2023-04-26T02:43:49.632Z,60.10
2023-04-26T02:46:18.732Z,60.17
2023-04-26T02:48:47.658Z,60.41
2023-04-26T02:51:18.171Z,60.06
2023-04-26T02:53:47.012Z,59.99
2023-04-26T02:56:16.234Z,59.97
2023-04-26T02:58:44.960Z,60.50
2023-04-26T03:01:14.925Z,60.16
2023-04-26T03:03:44.568Z,60.40
2023-04-26T03:06:13.828Z,60.57
2023-04-26T03:08:44.156Z,60.20
2023-04-26T03:11:13.406Z,60.10
2023-04-26T03:13:42.323Z,59.99
2023-04-26T03:16:11.773Z,60.27
2023-04-26T03:18:40.848Z,59.84
2023-04-26T03:21:11.952Z,60.13
2023-04-26T03:23:41.261Z,60.10
2023-04-26T03:26:12.119Z,60.37
2023-04-26T03:28:40.922Z,60.33
2023-04-26T03:31:10.119Z,60.31
2023-04-26T03:33:38.966Z,59.91
2023-04-26T03:36:08.398Z,60.25
2023-04-26T03:38:37.450Z,60.26
2023-04-26T03:41:07.063Z,60.37
2023-04-26T03:43:37.262Z,60.39
2023-04-26T03:46:06.695Z,60.50
2023-04-26T03:48:35.480Z,60.39
2023-04-26T03:51:04.663Z,60.59
2023-04-26T03:53:34.490Z,60.68
2023-04-26T03:56:03.587Z,60.79
2023-04-26T03:58:34.740Z,60.60
2023-04-26T04:01:06.187Z,60.33
2023-04-26T04:03:36.275Z,60.52
2023-04-26T04:06:07.143Z,60.85
2023-04-26T04:08:36.073Z,60.66
2023-04-26T04:11:05.534Z,60.71
2023-04-26T04:13:37.745Z,60.80
2023-04-26T04:16:10.280Z,60.38
2023-04-26T04:18:39.379Z,60.15
2023-04-26T04:21:08.428Z,60.66
2023-04-26T04:23:37.757Z,60.46
2023-04-26T04:26:12.560Z,60.87
2023-04-26T04:28:42.401Z,60.69
2023-04-26T04:31:13.114Z,60.39
2023-04-26T04:33:42.823Z,60.76
2023-04-26T04:36:16.864Z,60.40
2023-04-26T04:38:47.572Z,60.61
2023-04-26T04:41:18.846Z,60.59
2023-04-26T04:43:47.899Z,60.82
2023-04-26T04:46:18.404Z,60.65
2023-04-26T04:48:47.510Z,60.90
2023-04-26T04:51:16.584Z,60.71
2023-04-26T04:53:45.665Z,60.71
2023-04-26T04:56:15.785Z,61.10
2023-04-26T04:58:44.786Z,60.64
2023-04-26T05:01:13.893Z,61.11
2023-04-26T05:03:52.587Z,61.01
2023-04-26T05:06:22.791Z,60.99
2023-04-26T05:08:51.678Z,61.33
2023-04-26T05:11:21.465Z,61.19
2023-04-26T05:13:52.693Z,61.08
2023-04-26T05:16:23.026Z,61.28
2023-04-26T05:18:53.519Z,61.33
2023-04-26T05:21:23.100Z,61.30
2023-04-26T05:23:52.373Z,61.18
2023-04-26T05:26:21.757Z,61.29
2023-04-26T05:29:14.944Z,61.17
2023-04-26T05:32:07.264Z,60.81
2023-04-26T05:34:43.784Z,60.57
2023-04-26T05:37:18.361Z,61.00
2023-04-26T05:39:47.275Z,60.93
2023-04-26T05:42:17.984Z,60.97
2023-04-26T05:44:47.673Z,60.97
2023-04-26T05:47:16.748Z,61.04
2023-04-26T05:49:47.391Z,60.60
2023-04-26T05:52:16.623Z,60.84
2023-04-26T05:54:45.394Z,61.01
2023-04-26T05:57:15.022Z,60.99
2023-04-26T05:59:43.945Z,60.64
2023-04-26T06:02:13.368Z,61.19
2023-04-26T06:04:42.443Z,60.67
2023-04-26T06:07:19.544Z,60.62
2023-04-26T06:09:49.428Z,60.94
2023-04-26T06:12:18.877Z,60.23
2023-04-26T06:14:48.637Z,60.02
2023-04-26T06:17:22.037Z,60.24
2023-04-26T06:19:51.025Z,60.20
2023-04-26T06:22:22.817Z,60.01
2023-04-26T06:24:51.626Z,59.69
2023-04-26T06:27:20.813Z,59.78
2023-04-26T06:29:51.426Z,59.79
2023-04-26T06:32:21.903Z,59.89
2023-04-26T06:34:50.972Z,59.90
2023-04-26T06:37:21.419Z,59.96
2023-04-26T06:39:50.741Z,59.54
2023-04-26T06:42:20.504Z,59.39
2023-04-26T06:45:20.124Z,59.46
2023-04-26T06:47:52.300Z,59.07
2023-04-26T06:50:21.658Z,59.09
2023-04-26T06:52:52.414Z,58.72
2023-04-26T06:55:21.352Z,58.59
2023-04-26T06:57:50.994Z,58.70
2023-04-26T07:00:20.153Z,58.47
2023-04-26T07:02:49.653Z,58.33
2023-04-26T07:05:18.694Z,58.31
2023-04-26T07:07:48.146Z,57.47
2023-04-26T07:10:18.649Z,58.16
2023-04-26T07:12:48.438Z,57.66
2023-04-26T07:15:17.258Z,57.95
2023-04-26T07:17:46.457Z,57.88
2023-04-26T07:20:19.833Z,57.80
2023-04-26T07:22:49.250Z,57.46
2023-04-26T07:25:19.627Z,57.88
2023-04-26T07:27:51.733Z,57.69
2023-04-26T07:30:20.587Z,57.59
2023-04-26T07:32:50.116Z,57.32
2023-04-26T07:35:19.089Z,57.35
2023-04-26T07:37:48.597Z,57.30
2023-04-26T07:40:18.801Z,56.94
2023-04-26T07:42:49.740Z,56.74
2023-04-26T07:45:19.544Z,56.35
2023-04-26T07:47:49.066Z,56.54
2023-04-26T07:50:18.032Z,56.53
2023-04-26T07:52:47.806Z,56.40
2023-04-26T07:55:17.778Z,56.48
2023-04-26T07:57:47.226Z,56.60
2023-04-26T08:00:18.934Z,56.42
2023-04-26T08:02:48.486Z,56.33
2023-04-26T08:05:17.794Z,56.14
2023-04-26T08:07:47.278Z,56.56
2023-04-26T08:10:16.208Z,56.65
2023-04-26T08:12:45.620Z,56.41
2023-04-26T08:15:14.882Z,56.39
2023-04-26T08:17:45.793Z,56.29
2023-04-26T08:20:16.478Z,56.38
2023-04-26T08:22:45.856Z,56.61
2023-04-26T08:25:14.676Z,56.74
2023-04-26T08:27:44.977Z,56.50
2023-04-26T08:30:14.375Z,56.65
2023-04-26T08:32:43.534Z,56.47
2023-04-26T08:35:14.201Z,56.75
2023-04-26T08:37:43.472Z,56.65
2023-04-26T08:40:12.475Z,56.94
2023-04-26T08:42:44.057Z,56.91
2023-04-26T08:45:13.108Z,56.92
2023-04-26T08:47:45.832Z,56.92
2023-04-26T08:50:16.993Z,56.54
2023-04-26T08:52:48.597Z,56.90
2023-04-26T08:55:18.320Z,57.27
2023-04-26T08:57:49.844Z,56.92
2023-04-26T09:00:19.792Z,56.49
2023-04-26T09:02:51.393Z,56.50
2023-04-26T09:05:24.404Z,57.03
2023-04-26T09:07:57.665Z,57.16
2023-04-26T09:10:26.959Z,56.88
2023-04-26T09:12:56.611Z,56.99
2023-04-26T09:15:27.528Z,57.26
2023-04-26T09:17:56.785Z,57.30
2023-04-26T09:20:27.836Z,57.45
2023-04-26T09:23:05.427Z,57.65
2023-04-26T09:25:34.510Z,57.66
2023-04-26T09:28:04.329Z,57.79
2023-04-26T09:30:39.402Z,57.77
2023-04-26T09:33:09.639Z,57.84
2023-04-26T09:35:41.355Z,58.19
2023-04-26T09:38:13.570Z,58.32
2023-04-26T09:40:44.000Z,58.69
2023-04-26T09:43:13.972Z,58.86
2023-04-26T09:45:47.203Z,58.78
2023-04-26T09:48:17.775Z,58.72
2023-04-26T09:50:48.277Z,58.67
2023-04-26T09:53:31.092Z,58.71
2023-04-26T09:56:07.890Z,59.27
2023-04-26T09:58:38.098Z,59.55
2023-04-26T10:01:08.325Z,59.58
2023-04-26T10:03:38.051Z,59.72
2023-04-26T10:06:08.954Z,59.93
2023-04-26T10:08:38.224Z,60.53
2023-04-26T10:11:08.427Z,60.65
2023-04-26T10:13:37.603Z,60.99
2023-04-26T10:16:07.233Z,61.17
2023-04-26T10:18:37.306Z,60.80
2023-04-26T10:21:08.224Z,60.41
2023-04-26T10:23:39.541Z,60.58
2023-04-26T10:26:08.765Z,59.94
2023-04-26T10:29:02.051Z,59.54
2023-04-26T10:31:50.414Z,59.48
2023-04-26T10:34:20.465Z,59.41
2023-04-26T10:37:10.209Z,59.28
2023-04-26T10:39:42.619Z,59.38
2023-04-26T10:42:25.463Z,59.57
2023-04-26T10:44:57.930Z,58.62
2023-04-26T10:47:29.091Z,59.02
2023-04-26T10:50:11.203Z,58.62
2023-04-26T10:53:04.381Z,57.83
2023-04-26T10:55:42.394Z,57.79
2023-04-26T10:58:28.281Z,57.14
2023-04-26T11:01:07.724Z,56.71
2023-04-26T11:03:38.310Z,56.84
2023-04-26T11:06:14.065Z,56.56
2023-04-26T11:08:43.691Z,56.88
2023-04-26T11:11:23.649Z,56.56
2023-04-26T11:13:54.849Z,56.41
2023-04-26T11:16:27.162Z,56.30
2023-04-26T11:18:56.621Z,55.97
2023-04-26T11:21:27.245Z,54.87
2023-04-26T11:23:58.910Z,55.83
2023-04-26T11:26:35.520Z,55.12
2023-04-26T11:29:04.637Z,55.18
2023-04-26T11:31:38.517Z,54.69
2023-04-26T11:34:07.779Z,54.12
2023-04-26T11:36:38.493Z,54.38
2023-04-26T11:39:08.832Z,52.92
2023-04-26T11:41:39.717Z,52.39
2023-04-26T11:44:09.193Z,51.52
2023-04-26T11:46:40.094Z,51.65
2023-04-26T11:49:09.828Z,50.06
2023-04-26T11:51:40.060Z,50.15
2023-04-26T11:54:11.538Z,49.74
2023-04-26T11:56:42.737Z,49.31
2023-04-26T11:59:12.728Z,48.29
2023-04-26T12:01:51.874Z,47.66
2023-04-26T12:04:21.470Z,48.00
2023-04-26T12:06:56.284Z,48.35
2023-04-26T12:09:25.746Z,48.05
2023-04-26T12:11:58.992Z,46.92
2023-04-26T12:14:32.249Z,46.45
2023-04-26T12:17:06.368Z,45.09
2023-04-26T12:19:36.767Z,45.64
2023-04-26T12:22:08.336Z,46.84
2023-04-26T12:24:38.188Z,45.44
2023-04-26T12:27:10.041Z,46.06
2023-04-26T12:29:41.348Z,45.11
2023-04-26T12:32:11.828Z,45.82
2023-04-26T12:34:42.570Z,44.71
2023-04-26T12:37:19.656Z,45.71
2023-04-26T12:39:50.533Z,46.34
2023-04-26T12:42:23.983Z,46.42
2023-04-26T12:44:53.344Z,46.74
2023-04-26T12:47:23.937Z,46.97
2023-04-26T12:49:56.308Z,46.80
2023-04-26T12:52:27.821Z,46.51
2023-04-26T12:54:57.270Z,46.54
2023-04-26T12:57:27.721Z,46.43
2023-04-26T12:59:56.774Z,45.17
2023-04-26T13:02:25.984Z,46.12
2023-04-26T13:04:55.320Z,46.11
2023-04-26T13:07:24.488Z,45.99
2023-04-26T13:09:53.621Z,45.28
2023-04-26T13:12:25.603Z,44.64
2023-04-26T13:15:00.489Z,45.39
2023-04-26T13:17:37.504Z,43.60
2023-04-26T13:20:08.049Z,43.09
2023-04-26T13:22:42.552Z,42.26
2023-04-26T13:25:15.808Z,41.38
2023-04-26T13:27:46.150Z,40.50
2023-04-26T13:30:19.488Z,41.06
2023-04-26T13:32:49.870Z,40.52
2023-04-26T13:35:18.840Z,40.93
2023-04-26T13:37:47.931Z,40.57
2023-04-26T13:40:17.308Z,40.85
2023-04-26T13:42:46.351Z,41.15
2023-04-26T13:45:18.211Z,42.13
2023-04-26T13:47:48.572Z,41.78
2023-04-26T13:50:17.638Z,40.85
2023-04-26T13:52:48.594Z,40.60
2023-04-26T13:55:19.088Z,40.80
2023-04-26T13:57:48.331Z,39.38
2023-04-26T14:00:19.328Z,39.54
2023-04-26T14:02:53.168Z,38.97
2023-04-26T14:05:24.625Z,38.60
2023-04-26T14:07:55.227Z,38.35
2023-04-26T14:10:25.354Z,38.14
2023-04-26T14:12:57.050Z,38.51
2023-04-26T14:15:28.545Z,39.21
2023-04-26T14:18:02.231Z,38.44
2023-04-26T14:20:32.201Z,38.51
2023-04-26T14:23:03.578Z,38.31
2023-04-26T14:25:34.028Z,39.27
2023-04-26T14:28:04.840Z,38.69
2023-04-26T14:30:35.641Z,38.99
2023-04-26T14:33:06.006Z,40.15
2023-04-26T14:35:37.475Z,38.36
2023-04-26T14:38:08.200Z,37.96
2023-04-26T14:40:37.763Z,38.54
2023-04-26T14:43:07.032Z,38.53
2023-04-26T14:45:44.604Z,36.36
2023-04-26T14:48:14.772Z,36.43
2023-04-26T14:50:43.766Z,37.26
2023-04-26T14:53:13.278Z,34.36
2023-04-26T14:55:42.210Z,33.97
2023-04-26T14:58:11.753Z,33.51
2023-04-26T15:00:43.096Z,32.62
2023-04-26T15:03:14.970Z,34.24
2023-04-26T15:05:43.981Z,33.00
2023-04-26T15:08:13.310Z,33.83
2023-04-26T15:10:42.171Z,33.22
2023-04-26T15:13:11.464Z,34.76
2023-04-26T15:15:40.463Z,33.85
2023-04-26T15:18:11.048Z,32.93
2023-04-26T15:20:40.551Z,33.05
2023-04-26T15:23:09.626Z,32.46
2023-04-26T15:25:38.709Z,31.94
2023-04-26T15:28:07.742Z,32.80
2023-04-26T15:30:36.678Z,32.80
2023-04-26T15:33:06.958Z,32.93
2023-04-26T15:35:37.302Z,32.09
2023-04-26T15:38:06.639Z,33.58
2023-04-26T15:40:37.544Z,32.21
2023-04-26T15:43:07.619Z,31.65
2023-04-26T15:45:36.793Z,31.94
2023-04-26T15:48:07.590Z,31.07
2023-04-26T15:50:38.032Z,31.04
2023-04-26T15:53:07.209Z,31.39
2023-04-26T15:55:36.287Z,30.23
2023-04-26T15:58:05.917Z,31.30
2023-04-26T16:00:35.072Z,30.95
2023-04-26T16:03:04.471Z,30.88
2023-04-26T16:05:33.659Z,30.90
2023-04-26T16:08:09.676Z,30.63
2023-04-26T16:10:58.364Z,30.73
2023-04-26T16:13:30.769Z,31.49
2023-04-26T16:16:00.277Z,32.59
2023-04-26T16:18:30.466Z,33.49
2023-04-26T16:21:04.253Z,32.93
2023-04-26T16:23:34.932Z,33.45
2023-04-26T16:26:06.663Z,32.94
2023-04-26T16:28:35.996Z,33.61
2023-04-26T16:31:05.100Z,34.39
2023-04-26T16:33:34.541Z,34.24
2023-04-26T16:36:03.650Z,34.50
2023-04-26T16:38:33.854Z,35.18
2023-04-26T16:41:04.214Z,35.64
2023-04-26T16:43:34.891Z,35.75
2023-04-26T16:46:04.541Z,35.94
2023-04-26T16:48:34.808Z,36.59
2023-04-26T16:51:07.150Z,36.88
2023-04-26T16:53:37.729Z,36.93
2023-04-26T16:56:08.507Z,37.33
2023-04-26T16:58:37.858Z,37.65
2023-04-26T17:01:06.772Z,37.82
2023-04-26T17:03:36.260Z,37.82
2023-04-26T17:06:06.714Z,38.27
2023-04-26T17:08:36.019Z,38.08
2023-04-26T17:11:04.942Z,38.61
2023-04-26T17:13:35.470Z,39.12
2023-04-26T17:16:05.849Z,39.08
2023-04-26T17:18:36.705Z,39.39
2023-04-26T17:21:07.130Z,39.72
2023-04-26T17:23:36.853Z,40.12
2023-04-26T17:26:05.974Z,40.29
2023-04-26T17:28:38.919Z,40.76
2023-04-26T17:31:08.125Z,40.55
2023-04-26T17:33:37.813Z,40.93
2023-04-26T17:36:07.346Z,41.09
2023-04-26T17:38:36.376Z,41.43
2023-04-26T17:41:05.598Z,41.32
2023-04-26T17:43:36.059Z,41.55
2023-04-26T17:46:05.100Z,41.67
2023-04-26T17:48:34.161Z,41.70
2023-04-26T17:51:03.321Z,41.58
2023-04-26T17:53:32.531Z,41.93
2023-04-26T17:56:01.772Z,41.93
2023-04-26T17:58:31.218Z,42.38
2023-04-26T18:01:02.252Z,42.34
2023-04-26T18:03:31.790Z,42.69
2023-04-26T18:06:00.884Z,42.53
2023-04-26T18:08:29.951Z,43.04
2023-04-26T18:10:58.956Z,43.03
2023-04-26T18:13:28.319Z,43.02
2023-04-26T18:15:57.618Z,43.21
2023-04-26T18:18:28.186Z,43.19
2023-04-26T18:20:58.943Z,43.46
2023-04-26T18:23:28.001Z,43.52
2023-04-26T18:25:56.800Z,43.54
2023-04-26T18:28:26.189Z,44.12
2023-04-26T18:30:57.241Z,43.96
2023-04-26T18:33:29.843Z,44.36
2023-04-26T18:35:59.124Z,44.65
2023-04-26T18:38:29.417Z,44.74
2023-04-26T18:40:59.486Z,44.54
2023-04-26T18:43:28.759Z,44.75
2023-04-26T18:45:57.556Z,44.54
2023-04-26T18:48:28.685Z,45.07
2023-04-26T18:50:57.908Z,45.05
2023-04-26T18:53:26.955Z,44.46
2023-04-26T18:55:57.109Z,43.72
2023-04-26T18:58:26.562Z,45.06
2023-04-26T19:00:55.598Z,44.72
2023-04-26T19:03:24.937Z,45.31
2023-04-26T19:05:58.081Z,44.90
2023-04-26T19:08:28.035Z,44.00
2023-04-26T19:10:57.356Z,43.95
2023-04-26T19:13:26.742Z,43.55
2023-04-26T19:15:55.570Z,43.94
2023-04-26T19:18:24.645Z,44.43
2023-04-26T19:20:53.422Z,43.64
2023-04-26T19:23:23.998Z,43.28
2023-04-26T19:25:55.432Z,43.27
2023-04-26T19:28:24.757Z,43.18
2023-04-26T19:30:54.294Z,43.16
2023-04-26T19:33:23.396Z,43.04
2023-04-26T19:35:52.260Z,42.97
2023-04-26T19:38:21.332Z,43.16
2023-04-26T19:40:51.629Z,43.45
2023-04-26T19:43:21.235Z,43.30
2023-04-26T19:45:51.475Z,43.18
2023-04-26T19:48:20.494Z,44.92
2023-04-26T19:50:49.434Z,46.01
2023-04-26T19:53:18.898Z,45.98
2023-04-26T19:55:47.914Z,47.12
2023-04-26T19:58:20.113Z,47.67
2023-04-26T20:00:58.131Z,47.91
2023-04-26T20:03:28.489Z,47.91
2023-04-26T20:05:58.152Z,47.95
2023-04-26T20:08:31.439Z,47.13
2023-04-26T20:11:03.525Z,47.11
2023-04-26T20:13:35.427Z,46.98
2023-04-26T20:16:05.858Z,47.17
2023-04-26T20:18:35.078Z,47.18
2023-04-26T20:21:07.140Z,47.17
2023-04-26T20:23:36.628Z,46.42
2023-04-26T20:26:05.415Z,46.15
2023-04-26T20:28:41.460Z,45.87
2023-04-26T20:31:11.604Z,45.62
2023-04-26T20:33:40.993Z,46.76
2023-04-26T20:36:11.293Z,46.04
2023-04-26T20:38:41.088Z,45.21
2023-04-26T20:41:12.182Z,45.08
2023-04-26T20:43:47.064Z,45.49
2023-04-26T20:46:17.844Z,45.69
2023-04-26T20:48:48.224Z,45.18
2023-04-26T20:51:18.000Z,46.48
2023-04-26T20:53:49.337Z,46.65
2023-04-26T20:56:18.825Z,46.40
2023-04-26T20:58:49.272Z,46.74
2023-04-26T21:01:18.588Z,48.90
2023-04-26T21:03:48.152Z,48.99
2023-04-26T21:06:17.018Z,49.15
2023-04-26T21:08:46.313Z,49.65
2023-04-26T21:11:15.073Z,48.33
2023-04-26T21:13:44.318Z,48.93
2023-04-26T21:16:14.646Z,48.17
2023-04-26T21:18:43.770Z,48.03
2023-04-26T21:21:12.701Z,47.86
2023-04-26T21:23:42.291Z,49.11
2023-04-26T21:26:11.101Z,48.50
2023-04-26T21:28:40.259Z,48.03
2023-04-26T21:31:09.114Z,48.48
2023-04-26T21:33:40.025Z,48.53
2023-04-26T21:36:09.470Z,49.28
2023-04-26T21:38:38.586Z,46.83
2023-04-26T21:41:07.356Z,46.59
2023-04-26T21:43:38.102Z,46.49
2023-04-26T21:46:08.095Z,46.35
2023-04-26T21:48:38.839Z,47.94
2023-04-26T21:51:09.331Z,46.79
2023-04-26T21:53:38.830Z,48.01
2023-04-26T21:56:07.852Z,50.25
2023-04-26T21:58:36.870Z,49.86
2023-04-26T22:01:09.548Z,50.34
2023-04-26T22:03:38.932Z,49.30
2023-04-26T22:06:09.848Z,49.24
2023-04-26T22:08:39.674Z,50.50
2023-04-26T22:11:08.418Z,51.75
2023-04-26T22:13:37.619Z,51.65
2023-04-26T22:16:06.895Z,49.73
2023-04-26T22:18:36.473Z,50.01
2023-04-26T22:21:05.211Z,52.40
2023-04-26T22:23:35.971Z,52.59
2023-04-26T22:26:05.138Z,52.88
2023-04-26T22:28:34.191Z,52.05
2023-04-26T22:31:03.410Z,52.97
2023-04-26T22:33:32.431Z,53.64
2023-04-26T22:36:01.534Z,54.74
2023-04-26T22:38:30.730Z,54.23
2023-04-26T22:41:01.095Z,54.26
2023-04-26T22:43:30.307Z,54.49
2023-04-26T22:45:59.074Z,55.01
2023-04-26T22:48:28.413Z,55.82
2023-04-26T22:50:57.579Z,55.33
2023-04-26T22:53:26.692Z,54.54
2023-04-26T22:55:55.678Z,55.44
2023-04-26T22:58:26.312Z,54.70
2023-04-26T23:00:55.243Z,56.50
2023-04-26T23:03:24.498Z,55.85
2023-04-26T23:05:53.649Z,56.29
2023-04-26T23:08:22.808Z,56.68
2023-04-26T23:10:51.780Z,55.76
2023-04-26T23:13:21.588Z,56.20
2023-04-26T23:15:52.422Z,56.71
2023-04-26T23:18:21.780Z,56.53
2023-04-26T23:20:51.500Z,57.28
2023-04-26T23:23:20.704Z,57.57
2023-04-26T23:25:49.522Z,57.30
2023-04-26T23:28:18.951Z,56.92
2023-04-26T23:30:47.728Z,57.22
2023-04-26T23:33:18.401Z,56.83
2023-04-26T23:35:47.302Z,57.19
2023-04-26T23:38:16.653Z,57.90
2023-04-26T23:40:46.226Z,58.30
2023-04-26T23:43:15.421Z,58.51
2023-04-26T23:45:47.386Z,58.31
2023-04-26T23:48:18.434Z,57.62
2023-04-26T23:50:47.364Z,57.96
2023-04-26T23:53:16.651Z,58.16
2023-04-26T23:55:46.092Z,58.02
2023-04-26T23:58:15.226Z,57.98
